Time;durP1;ratioP1;P1;durP2;ratioP2;P2;SDS_P1;SDS_P2;PMS_P1;PMS_P2;Temp;Humidity;BMP_temperature;BMP_pressure;BME280_temperature;BME280_humidity;BME280_pressure;Samples;Min_cycle;Max_cycle;Signal;HPM_P1;HPM_P2
2023/03/15 00:01:48;;;;;;;1999.90;999.90;;;2.90;99.90;;;;;;5011695;28;20812;-69
2023/03/15 00:04:14;;;;;;;1999.90;999.90;;;3.00;99.90;;;;;;5011669;28;20623;-69
2023/03/15 00:06:40;;;;;;;1999.90;999.90;;;2.90;99.90;;;;;;5011625;28;20230;-69
2023/03/15 00:09:05;;;;;;;1999.90;999.90;;;3.00;99.90;;;;;;5011452;28;20204;-69
2023/03/15 00:11:31;;;;;;;1999.90;999.90;;;3.00;99.90;;;;;;5011654;28;20215;-69
2023/03/15 00:13:57;;;;;;;1999.90;999.90;;;3.10;99.90;;;;;;5011355;28;20255;-69
2023/03/15 00:16:26;;;;;;;1999.90;999.90;;;3.20;99.90;;;;;;5011490;28;20161;-69
2023/03/15 00:18:53;;;;;;;1999.90;999.90;;;3.20;99.90;;;;;;5015128;28;20201;-69
2023/03/15 00:21:19;;;;;;;1999.90;999.90;;;3.30;99.90;;;;;;5015263;28;20660;-69
2023/03/15 00:23:45;;;;;;;1999.90;999.90;;;3.30;99.90;;;;;;5014794;28;20559;-69
2023/03/15 00:26:11;;;;;;;1999.90;999.90;;;3.30;99.90;;;;;;5014956;28;20260;-69
2023/03/15 00:28:37;;;;;;;1999.90;999.90;;;3.40;99.90;;;;;;5014922;28;20165;-69
2023/03/15 00:31:13;;;;;;;1999.90;999.90;;;3.40;99.90;;;;;;5015114;28;20819;-69
2023/03/15 00:33:40;;;;;;;1999.90;999.90;;;3.40;99.90;;;;;;5014659;28;20173;-69
2023/03/15 00:36:07;;;;;;;1999.90;999.90;;;3.40;99.90;;;;;;5014858;28;20415;-69
2023/03/15 00:38:34;;;;;;;1999.90;999.90;;;3.40;99.90;;;;;;5014742;28;20443;-69
2023/03/15 00:41:06;;;;;;;1999.90;999.90;;;3.40;99.90;;;;;;5014680;28;20184;-69
2023/03/15 00:43:32;;;;;;;1999.90;999.90;;;3.50;99.90;;;;;;5014602;28;20456;-69
2023/03/15 00:45:58;;;;;;;1999.90;999.90;;;4.10;99.90;;;;;;5014738;28;20188;-69
2023/03/15 00:48:23;;;;;;;1999.90;999.90;;;3.40;99.90;;;;;;5014518;28;20173;-69
2023/03/15 00:50:49;;;;;;;1999.90;999.90;;;3.60;99.90;;;;;;5014575;28;20204;-68
2023/03/15 00:53:14;;;;;;;1999.90;999.90;;;4.50;99.90;;;;;;5014346;28;20173;-69
2023/03/15 00:55:41;;;;;;;1999.90;999.90;;;3.60;99.90;;;;;;5014417;28;20693;-70
2023/03/15 00:58:07;;;;;;;1999.90;999.90;;;3.70;99.90;;;;;;5014339;28;20174;-69
2023/03/15 01:00:33;;;;;;;1999.90;999.90;;;3.60;99.90;;;;;;5014483;28;20201;-70
2023/03/15 01:02:59;;;;;;;1999.90;999.90;;;3.60;99.90;;;;;;5014056;28;20200;-69
2023/03/15 01:05:25;;;;;;;1999.90;999.90;;;3.60;99.90;;;;;;5014238;28;20940;-70
2023/03/15 01:07:51;;;;;;;1999.90;999.90;;;3.60;99.90;;;;;;5014145;28;20173;-69
2023/03/15 01:10:17;;;;;;;1999.90;999.90;;;3.60;99.90;;;;;;5014122;28;20521;-70
2023/03/15 01:12:43;;;;;;;1999.90;999.90;;;3.50;99.90;;;;;;5014045;28;20470;-71
2023/03/15 01:15:12;;;;;;;1999.90;999.90;;;4.90;99.90;;;;;;5014133;28;20185;-72
2023/03/15 01:17:38;;;;;;;1999.90;999.90;;;3.10;99.90;;;;;;5013889;28;20183;-71
2023/03/15 01:20:04;;;;;;;1999.90;999.90;;;3.00;99.90;;;;;;5014034;28;20201;-71
2023/03/15 01:22:30;;;;;;;1999.90;999.90;;;2.90;99.90;;;;;;5013780;28;20555;-71
2023/03/15 01:24:56;;;;;;;1999.90;999.90;;;2.80;99.90;;;;;;5013861;28;20161;-71
2023/03/15 01:27:21;;;;;;;1999.90;999.90;;;2.80;99.90;;;;;;5013750;28;20173;-72
2023/03/15 01:29:47;;;;;;;1999.90;999.90;;;2.80;99.90;;;;;;5013057;28;20827;-72
2023/03/15 01:32:13;;;;;;;1999.90;999.90;;;2.80;99.90;;;;;;5013543;28;20252;-72
2023/03/15 01:34:39;;;;;;;1999.90;999.90;;;2.80;99.90;;;;;;5013786;28;20691;-72
2023/03/15 01:37:05;;;;;;;1999.90;999.90;;;2.80;99.90;;;;;;5013897;28;20975;-72
2023/03/15 01:39:30;;;;;;;1999.90;999.90;;;2.80;99.90;;;;;;5013518;28;20507;-72
2023/03/15 01:41:56;;;;;;;1999.90;999.90;;;2.80;99.90;;;;;;5013373;28;20271;-71
2023/03/15 01:44:22;;;;;;;1999.90;999.90;;;2.70;99.90;;;;;;5013568;28;20165;-71
2023/03/15 01:46:49;;;;;;;1999.90;999.90;;;2.70;99.90;;;;;;5013490;28;20188;-70
2023/03/15 01:49:32;;;;;;;1999.90;999.90;;;2.70;99.90;;;;;;5013413;28;20201;-72
2023/03/15 01:52:04;;;;;;;1999.90;999.90;;;2.60;99.90;;;;;;5013214;28;20184;-72
2023/03/15 01:54:37;;;;;;;1999.90;999.90;;;3.30;99.90;;;;;;5013423;28;20655;-71
2023/03/15 01:57:13;;;;;;;1999.90;999.90;;;2.60;99.90;;;;;;5013262;28;20178;-70
2023/03/15 01:59:52;;;;;;;1999.90;999.90;;;2.50;99.90;;;;;;5013249;28;20193;-71
2023/03/15 02:02:21;;;;;;;1999.90;999.90;;;2.40;99.90;;;;;;5012936;28;20573;-71
2023/03/15 02:05:03;;;;;;;1999.90;999.90;;;2.40;99.90;;;;;;5013208;28;20515;-71
2023/03/15 02:07:33;;;;;;;1999.90;999.90;;;2.30;99.90;;;;;;5013192;28;20228;-70
2023/03/15 02:10:04;;;;;;;1999.90;999.90;;;2.20;99.90;;;;;;5012919;28;20219;-70
2023/03/15 02:12:33;;;;;;;1999.90;999.90;;;2.20;99.90;;;;;;5012854;28;20173;-71
2023/03/15 02:15:02;;;;;;;1999.90;999.90;;;2.20;99.90;;;;;;5013346;28;20715;-70
2023/03/15 02:17:34;;;;;;;1999.90;999.90;;;2.10;99.90;;;;;;5012617;28;20195;-71
2023/03/15 02:20:26;;;;;;;1999.90;999.90;;;3.30;99.90;;;;;;5012932;28;20216;-71
2023/03/15 02:23:05;;;;;;;1999.90;999.90;;;1.90;99.90;;;;;;5012744;28;20531;-70
2023/03/15 02:26:15;;;;;;;1999.90;999.90;;;1.80;99.90;;;;;;5013039;28;20181;-71
2023/03/15 02:28:42;;;;;;;1999.90;999.90;;;1.70;99.90;;;;;;5012898;28;20264;-71
2023/03/15 02:31:08;;;;;;;1999.90;999.90;;;1.60;99.90;;;;;;5012755;28;20168;-71
2023/03/15 02:33:41;;;;;;;1999.90;999.90;;;1.60;99.90;;;;;;5012470;28;20177;-71
2023/03/15 02:36:18;;;;;;;1999.90;999.90;;;1.70;99.90;;;;;;5012692;28;20415;-71
2023/03/15 02:38:44;;;;;;;1999.90;999.90;;;1.80;99.90;;;;;;5012504;28;20192;-71
2023/03/15 02:41:10;;;;;;;1999.90;999.90;;;1.80;99.90;;;;;;5012607;28;20173;-71
2023/03/15 02:43:37;;;;;;;1999.90;999.90;;;1.80;99.90;;;;;;5012263;28;20232;-71
2023/03/15 02:46:03;;;;;;;1999.90;999.90;;;1.80;99.90;;;;;;5012344;28;20655;-71
2023/03/15 02:48:32;;;;;;;1999.90;999.90;;;1.70;99.90;;;;;;5012668;28;20181;-72
2023/03/15 02:50:58;;;;;;;1999.90;999.90;;;1.70;99.90;;;;;;5012489;28;20658;-71
2023/03/15 02:53:23;;;;;;;1999.90;999.90;;;3.60;99.90;;;;;;5012230;28;20173;-72
2023/03/15 02:55:50;;;;;;;1999.90;999.90;;;1.60;99.90;;;;;;5012452;28;20606;-71
2023/03/15 02:58:16;;;;;;;1999.90;999.90;;;1.60;99.90;;;;;;5012337;28;20223;-71
2023/03/15 03:00:41;;;;;;;1999.90;999.90;;;1.70;99.90;;;;;;5012152;28;20531;-72
2023/03/15 03:03:07;;;;;;;1999.90;999.90;;;1.70;99.90;;;;;;5012064;28;20200;-72
2023/03/15 03:05:33;;;;;;;1999.90;999.90;;;1.70;99.90;;;;;;5012366;28;20666;-71
2023/03/15 03:07:58;;;;;;;1999.90;999.90;;;1.70;99.90;;;;;;5011999;28;20404;-72
2023/03/15 03:10:24;;;;;;;1999.90;999.90;;;1.70;99.90;;;;;;5012162;28;20196;-71
2023/03/15 03:12:53;;;;;;;1999.90;999.90;;;1.80;99.90;;;;;;5012067;28;20169;-71
2023/03/15 03:15:19;;;;;;;1999.90;999.90;;;1.70;99.90;;;;;;5012037;28;20171;-71
2023/03/15 03:17:45;;;;;;;1999.90;999.90;;;1.80;99.90;;;;;;5012241;28;20650;-71
2023/03/15 03:20:12;;;;;;;1999.90;999.90;;;1.90;99.90;;;;;;5012052;28;20223;-72
2023/03/15 03:22:39;;;;;;;1999.90;999.90;;;1.90;99.90;;;;;;5011827;28;20191;-71
2023/03/15 03:25:06;;;;;;;1999.90;999.90;;;1.90;99.90;;;;;;5012063;28;20244;-72
2023/03/15 03:27:35;;;;;;;1999.90;999.90;;;2.00;99.90;;;;;;5012031;28;20264;-72
2023/03/15 03:30:06;;;;;;;1999.90;999.90;;;1.90;99.90;;;;;;5011959;28;20237;-71
2023/03/15 03:32:32;;;;;;;1999.90;999.90;;;2.00;99.90;;;;;;5011834;28;20175;-72
2023/03/15 03:34:58;;;;;;;1999.90;999.90;;;2.00;99.90;;;;;;4994653;28;20256;-72
2023/03/15 03:37:23;;;;;;;1999.90;999.90;;;2.00;99.90;;;;;;5011893;28;20710;-71
2023/03/15 03:39:49;;;;;;;1999.90;999.90;;;2.10;99.90;;;;;;5011870;28;20463;-71
2023/03/15 03:42:15;;;;;;;1999.90;999.90;;;2.10;99.90;;;;;;5011604;28;20260;-72
2023/03/15 03:44:40;;;;;;;1999.90;999.90;;;2.10;99.90;;;;;;5011856;28;20193;-72
2023/03/15 03:47:07;;;;;;;1999.90;999.90;;;2.10;99.90;;;;;;5012001;28;20173;-72
2023/03/15 03:49:32;;;;;;;1999.90;999.90;;;2.10;99.90;;;;;;5011876;28;20527;-72
2023/03/15 03:52:01;;;;;;;1999.90;999.90;;;2.10;99.90;;;;;;5012527;28;20267;-71
2023/03/15 03:54:27;;;;;;;1999.90;999.90;;;2.10;99.90;;;;;;5015645;28;20180;-71
2023/03/15 03:56:53;;;;;;;1999.90;999.90;;;2.10;99.90;;;;;;5015527;28;20589;-72
2023/03/15 03:59:18;;;;;;;1999.90;999.90;;;2.10;99.90;;;;;;5015565;28;20522;-71
2023/03/15 04:01:44;;;;;;;1999.90;999.90;;;2.10;99.90;;;;;;5015359;28;20256;-70
2023/03/15 04:04:12;;;;;;;1999.90;999.90;;;2.20;99.90;;;;;;5015881;28;20173;-71
2023/03/15 04:06:45;;;;;;;1999.90;999.90;;;2.20;99.90;;;;;;5015335;28;20410;-71
2023/03/15 04:09:12;;;;;;;1999.90;999.90;;;2.20;99.90;;;;;;5015238;28;20670;-71
2023/03/15 04:11:42;;;;;;;1999.90;999.90;;;2.30;99.90;;;;;;5015320;28;20906;-71
2023/03/15 04:14:09;;;;;;;1999.90;999.90;;;2.30;99.90;;;;;;5016237;28;20434;-72
2023/03/15 04:16:35;;;;;;;1999.90;999.90;;;2.40;99.90;;;;;;5016940;28;20181;-72
2023/03/15 04:19:02;;;;;;;1999.90;999.90;;;2.40;99.90;;;;;;5016677;28;20268;-72
2023/03/15 04:21:30;;;;;;;1999.90;999.90;;;2.30;99.90;;;;;;5016733;28;20419;-72
2023/03/15 04:24:00;;;;;;;1999.90;999.90;;;2.20;99.90;;;;;;5016499;28;20220;-72
2023/03/15 04:26:26;;;;;;;1999.90;999.90;;;2.30;99.90;;;;;;5017055;28;20177;-72
2023/03/15 04:28:57;;;;;;;1999.90;999.90;;;3.90;99.90;;;;;;5018442;28;20197;-73
2023/03/15 04:31:26;;;;;;;1999.90;999.90;;;2.10;99.90;;;;;;5018141;28;20196;-72
2023/03/15 04:33:55;;;;;;;1999.90;999.90;;;2.10;99.90;;;;;;5017911;28;20461;-73
2023/03/15 04:36:21;;;;;;;1999.90;999.90;;;2.10;99.90;;;;;;5017469;28;20676;-73
2023/03/15 04:38:48;;;;;;;1999.90;999.90;;;2.00;99.90;;;;;;5016967;28;20229;-72
2023/03/15 04:41:15;;;;;;;1999.90;999.90;;;2.00;99.90;;;;;;5017066;28;20226;-73
2023/03/15 04:43:41;;;;;;;1999.90;999.90;;;2.00;99.90;;;;;;5017142;28;20637;-72
2023/03/15 04:46:07;;;;;;;1999.90;999.90;;;2.10;99.90;;;;;;5017194;28;20201;-73
2023/03/15 04:48:33;;;;;;;1999.90;999.90;;;2.40;99.90;;;;;;5017020;28;20411;-73
2023/03/15 04:50:59;;;;;;;1999.90;999.90;;;2.20;99.90;;;;;;5015460;28;20981;-71
2023/03/15 04:53:25;;;;;;;1999.90;999.90;;;2.20;99.90;;;;;;5014484;28;20185;-71
2023/03/15 04:55:51;;;;;;;1999.90;999.90;;;2.20;99.90;;;;;;5014623;28;20553;-72
2023/03/15 04:58:17;;;;;;;1999.90;999.90;;;2.20;99.90;;;;;;5014584;28;20177;-72
2023/03/15 05:00:42;;;;;;;1999.90;999.90;;;2.30;99.90;;;;;;5014341;28;20518;-71
2023/03/15 05:03:08;;;;;;;1999.90;999.90;;;2.20;99.90;;;;;;5013411;28;20287;-72
2023/03/15 05:05:33;;;;;;;1999.90;999.90;;;2.20;99.90;;;;;;5014080;28;20169;-71
2023/03/15 05:08:00;;;;;;;1999.90;999.90;;;2.20;99.90;;;;;;5014377;28;20173;-71
2023/03/15 05:10:28;;;;;;;1999.90;999.90;;;2.20;99.90;;;;;;5014218;28;20192;-71
2023/03/15 05:12:54;;;;;;;1999.90;999.90;;;2.20;99.90;;;;;;5014000;28;20665;-71
2023/03/15 05:15:19;;;;;;;1999.90;999.90;;;2.10;99.90;;;;;;5014238;28;20176;-71
2023/03/15 05:17:45;;;;;;;1999.90;999.90;;;2.10;99.90;;;;;;5014026;28;20226;-71
2023/03/15 05:20:12;;;;;;;1999.90;999.90;;;2.10;99.90;;;;;;5013941;28;20277;-71
2023/03/15 05:22:39;;;;;;;1999.90;999.90;;;2.00;99.90;;;;;;5013896;28;20236;-71
2023/03/15 05:25:06;;;;;;;1999.90;999.90;;;2.00;99.90;;;;;;5014145;28;20181;-71
2023/03/15 05:27:32;;;;;;;1999.90;999.90;;;2.10;99.90;;;;;;5013726;28;20164;-70
2023/03/15 05:29:58;;;;;;;1999.90;999.90;;;2.10;99.90;;;;;;5013670;28;20284;-71
2023/03/15 05:32:25;;;;;;;1999.90;999.90;;;2.10;99.90;;;;;;5013648;28;20244;-71
2023/03/15 05:34:54;;;;;;;1999.90;999.90;;;4.00;99.90;;;;;;5013765;28;20293;-71
2023/03/15 05:37:21;;;;;;;1999.90;999.90;;;2.20;99.90;;;;;;5013556;28;20169;-71
2023/03/15 05:39:47;;;;;;;1999.90;999.90;;;2.20;99.90;;;;;;5013553;28;20200;-72
2023/03/15 05:42:14;;;;;;;1999.90;999.90;;;2.20;99.90;;;;;;5013423;28;20196;-72
2023/03/15 05:44:39;;;;;;;1999.90;999.90;;;2.30;99.90;;;;;;5013568;28;20404;-72
2023/03/15 05:47:05;;;;;;;1999.90;999.90;;;2.30;99.90;;;;;;5013758;28;20220;-72
2023/03/15 05:49:30;;;;;;;1999.90;999.90;;;2.40;99.90;;;;;;5013374;28;20267;-72
2023/03/15 05:51:56;;;;;;;1999.90;999.90;;;2.30;99.90;;;;;;5013271;28;20227;-72
2023/03/15 05:54:22;;;;;;;1999.90;999.90;;;2.40;99.90;;;;;;5013432;28;20545;-72
2023/03/15 05:56:47;;;;;;;1999.90;999.90;;;2.40;99.90;;;;;;5013250;28;20211;-72
2023/03/15 05:59:13;;;;;;;1999.90;999.90;;;2.40;99.90;;;;;;5013279;28;20189;-72
2023/03/15 06:01:38;;;;;;;1999.90;999.90;;;2.40;99.90;;;;;;5013248;28;20170;-72
2023/03/15 06:04:04;;;;;;;1999.90;999.90;;;2.40;99.90;;;;;;5013030;28;20247;-72
2023/03/15 06:06:29;;;;;;;1999.90;999.90;;;2.30;99.90;;;;;;5013167;28;20165;-72
2023/03/15 06:08:55;;;;;;;1999.90;999.90;;;2.40;99.90;;;;;;5012993;28;20236;-72
2023/03/15 06:11:21;;;;;;;1999.90;999.90;;;2.40;99.90;;;;;;5013163;28;20165;-72
2023/03/15 06:13:46;;;;;;;1999.90;999.90;;;2.50;99.90;;;;;;5012916;28;20169;-72
2023/03/15 06:16:12;;;;;;;1999.90;999.90;;;2.50;99.90;;;;;;5012716;28;20181;-72
2023/03/15 06:18:38;;;;;;;1999.90;999.90;;;2.60;99.90;;;;;;5012909;28;20173;-72
2023/03/15 06:21:03;;;;;;;1999.90;999.90;;;2.60;99.90;;;;;;5012977;28;20408;-72
2023/03/15 06:23:29;;;;;;;1999.90;999.90;;;2.60;99.90;;;;;;5013250;28;20211;-72
2023/03/15 06:25:54;;;;;;;1999.90;999.90;;;2.60;99.90;;;;;;5013634;28;20173;-72
2023/03/15 06:28:20;;;;;;;1999.90;999.90;;;2.70;99.90;;;;;;5013530;28;20228;-72
2023/03/15 06:30:45;;;;;;;1999.90;999.90;;;2.70;99.90;;;;;;5013753;28;20176;-72
2023/03/15 06:33:11;;;;;;;1999.90;999.90;;;2.70;99.90;;;;;;5013218;28;20180;-72
2023/03/15 06:35:37;;;;;;;1999.90;999.90;;;2.80;99.90;;;;;;5013182;28;20172;-71
2023/03/15 06:38:03;;;;;;;1999.90;999.90;;;2.80;99.90;;;;;;5012763;28;20212;-71
2023/03/15 06:40:28;;;;;;;1999.90;999.90;;;2.80;99.90;;;;;;5012487;28;20203;-71
2023/03/15 06:42:54;;;;;;;1999.90;999.90;;;2.70;99.90;;;;;;5012352;28;20200;-71
2023/03/15 06:45:19;;;;;;;1999.90;999.90;;;2.70;99.90;;;;;;5012559;28;20173;-71
2023/03/15 06:47:45;;;;;;;1999.90;999.90;;;2.80;99.90;;;;;;5012358;28;20223;-71
2023/03/15 06:50:11;;;;;;;1999.90;999.90;;;2.80;99.90;;;;;;5012563;28;20204;-71
2023/03/15 06:52:37;;;;;;;1999.90;999.90;;;2.90;99.90;;;;;;5012226;28;20173;-71
2023/03/15 06:55:03;;;;;;;1999.90;999.90;;;3.00;99.90;;;;;;5012435;28;20412;-71
2023/03/15 06:57:29;;;;;;;1999.90;999.90;;;3.00;99.90;;;;;;5012286;28;20602;-71
2023/03/15 06:59:55;;;;;;;1999.90;999.90;;;3.10;99.90;;;;;;5012277;28;20243;-71
2023/03/15 07:02:21;;;;;;;1999.90;999.90;;;3.00;99.90;;;;;;5012075;28;20300;-71
2023/03/15 07:04:47;;;;;;;1999.90;999.90;;;3.10;99.90;;;;;;5012357;28;20215;-71
2023/03/15 07:07:13;;;;;;;1999.90;999.90;;;3.10;99.90;;;;;;5012399;28;20412;-71
2023/03/15 07:09:39;;;;;;;1999.90;999.90;;;3.10;99.90;;;;;;5012032;28;20581;-71
2023/03/15 07:12:06;;;;;;;1999.90;999.90;;;3.10;99.90;;;;;;5012171;28;20408;-71
2023/03/15 07:14:33;;;;;;;1999.90;999.90;;;3.10;99.90;;;;;;5012157;28;20165;-72
2023/03/15 07:16:58;;;;;;;1999.90;999.90;;;3.20;99.90;;;;;;5011966;28;21000;-71
2023/03/15 07:19:24;;;;;;;1999.90;999.90;;;3.20;99.90;;;;;;5012149;28;20471;-71
2023/03/15 07:21:50;;;;;;;1999.90;999.90;;;3.30;99.90;;;;;;5011889;28;20173;-71
2023/03/15 07:24:16;;;;;;;1999.90;999.90;;;3.40;99.90;;;;;;5012141;28;20161;-71
2023/03/15 07:26:41;;;;;;;1999.90;999.90;;;3.50;99.90;;;;;;5012440;28;20427;-71
2023/03/15 07:29:07;;;;;;;1999.90;999.90;;;3.50;99.90;;;;;;5016054;28;20176;-71
2023/03/15 07:31:33;;;;;;;1999.90;999.90;;;3.70;99.90;;;;;;5016047;28;20165;-71
2023/03/15 07:33:58;;;;;;;1999.90;999.90;;;3.80;99.90;;;;;;5015869;28;20181;-70
2023/03/15 07:36:24;;;;;;;1999.90;999.90;;;3.90;99.90;;;;;;5033573;28;20186;-71
2023/03/15 07:38:49;;;;;;;1999.90;999.90;;;4.00;99.90;;;;;;5035638;28;20734;-71
2023/03/15 07:41:15;;;;;;;1999.90;999.90;;;4.20;99.90;;;;;;5035666;28;20180;-71
2023/03/15 07:43:41;;;;;;;1999.90;999.90;;;4.20;99.90;;;;;;5035356;28;20196;-71
2023/03/15 07:46:06;;;;;;;1999.90;999.90;;;4.30;99.90;;;;;;5035427;28;20697;-71
2023/03/15 07:48:32;;;;;;;1999.90;999.90;;;4.20;99.90;;;;;;5035517;28;20196;-71
2023/03/15 07:50:58;;;;;;;1999.90;999.90;;;4.30;99.90;;;;;;5035613;28;20200;-71
2023/03/15 07:53:24;;;;;;;1999.90;999.90;;;4.30;99.90;;;;;;5035255;28;20169;-71
2023/03/15 07:55:49;;;;;;;1999.90;999.90;;;4.30;99.90;;;;;;5035419;28;20177;-70
2023/03/15 07:58:15;;;;;;;1999.90;999.90;;;4.20;99.90;;;;;;5035398;28;20498;-71
2023/03/15 08:00:41;;;;;;;1999.90;999.90;;;4.00;99.90;;;;;;5035196;28;20825;-71
2023/03/15 08:03:06;;;;;;;1999.90;999.90;;;3.70;99.90;;;;;;5035083;28;20222;-71
2023/03/15 08:05:33;;;;;;;1999.90;999.90;;;3.40;99.90;;;;;;5035239;28;20904;-71
2023/03/15 08:07:59;;;;;;;1999.90;999.90;;;3.40;99.90;;;;;;5035117;28;20653;-70
2023/03/15 08:10:24;;;;;;;1999.90;999.90;;;3.40;99.90;;;;;;5035481;28;20283;-71
2023/03/15 08:12:50;;;;;;;1999.90;999.90;;;3.30;99.90;;;;;;5036376;28;20429;-72
2023/03/15 08:15:16;;;;;;;1999.90;999.90;;;3.20;99.90;;;;;;5036334;28;20634;-72
2023/03/15 08:17:41;;;;;;;1999.90;999.90;;;3.30;99.90;;;;;;5036224;28;20666;-71
2023/03/15 08:20:10;;;;;;;1999.90;999.90;;;3.30;99.90;;;;;;5036396;28;20572;-71
2023/03/15 08:22:37;;;;;;;1999.90;999.90;;;3.40;99.90;;;;;;5035867;28;20215;-72
2023/03/15 08:25:03;;;;;;;1999.90;999.90;;;3.50;99.90;;;;;;5036220;28;20180;-72
2023/03/15 08:27:29;;;;;;;1999.90;999.90;;;3.50;99.90;;;;;;5036360;28;20188;-72
2023/03/15 08:29:54;;;;;;;1999.90;999.90;;;3.60;99.90;;;;;;5035980;28;20682;-71
2023/03/15 08:32:20;;;;;;;1999.90;999.90;;;3.60;99.90;;;;;;5036404;28;20168;-71
2023/03/15 08:34:46;;;;;;;1999.90;999.90;;;3.60;99.90;;;;;;5036550;28;20578;-71
2023/03/15 08:37:12;;;;;;;1999.90;999.90;;;3.60;99.90;;;;;;5036468;28;21112;-71
2023/03/15 08:39:39;;;;;;;1999.90;999.90;;;3.60;99.90;;;;;;5035791;28;20427;-71
2023/03/15 08:42:05;;;;;;;1999.90;999.90;;;3.70;99.90;;;;;;5035621;28;20259;-71
2023/03/15 08:44:31;;;;;;;1999.90;999.90;;;3.80;99.90;;;;;;5036271;28;20196;-72
2023/03/15 08:46:57;;;;;;;1999.90;999.90;;;3.90;99.90;;;;;;5035742;28;20399;-71
2023/03/15 08:49:22;;;;;;;1999.90;999.90;;;4.00;99.90;;;;;;5035525;28;20492;-72
2023/03/15 08:51:48;;;;;;;1999.90;999.90;;;4.10;99.90;;;;;;5035486;28;20177;-72
2023/03/15 08:54:14;;;;;;;1999.90;999.90;;;4.20;99.90;;;;;;5035668;28;20176;-71
2023/03/15 08:56:40;;;;;;;1999.90;999.90;;;4.30;99.90;;;;;;5035116;28;20173;-71
2023/03/15 08:59:06;;;;;;;1999.90;999.90;;;4.30;99.90;;;;;;5035486;28;20188;-71
2023/03/15 09:01:33;;;;;;;1999.90;999.90;;;4.20;99.90;;;;;;5035895;28;20422;-72
2023/03/15 09:04:00;;;;;;;1999.90;999.90;;;4.20;99.90;;;;;;5035236;28;20455;-71
2023/03/15 09:06:26;;;;;;;1999.90;999.90;;;4.10;99.90;;;;;;5035296;28;21059;-71
2023/03/15 09:08:54;;;;;;;1999.90;999.90;;;4.00;99.90;;;;;;5034824;28;20500;-71
2023/03/15 09:11:21;;;;;;;1999.90;999.90;;;4.10;99.90;;;;;;5035370;28;20447;-71
2023/03/15 09:13:47;;;;;;;1999.90;999.90;;;4.10;99.90;;;;;;5035268;28;20176;-71
2023/03/15 09:16:13;;;;;;;1999.90;999.90;;;4.20;99.90;;;;;;5034775;28;20411;-71
2023/03/15 09:18:42;;;;;;;1999.90;999.90;;;4.60;99.90;;;;;;5033863;28;20940;-71
2023/03/15 09:21:09;;;;;;;1999.90;999.90;;;4.40;99.90;;;;;;5033779;28;20176;-71
2023/03/15 09:23:34;;;;;;;1999.90;999.90;;;4.40;99.90;;;;;;5033493;28;20533;-70
2023/03/15 09:26:00;;;;;;;1999.90;999.90;;;4.40;99.90;;;;;;5033676;28;20458;-71
2023/03/15 09:28:26;;;;;;;1999.90;999.90;;;4.40;99.90;;;;;;5025782;28;20234;-70
2023/03/15 09:30:51;;;;;;;1999.90;999.90;;;4.40;99.90;;;;;;5013140;28;20252;-70
2023/03/15 09:33:17;;;;;;;1999.90;999.90;;;4.40;99.90;;;;;;5015459;28;20263;-71
2023/03/15 09:35:43;;;;;;;1999.90;999.90;;;4.50;99.90;;;;;;5028584;28;20203;-72
2023/03/15 09:38:09;;;;;;;1999.90;999.90;;;4.40;99.90;;;;;;5029323;28;20226;-70
2023/03/15 09:40:40;;;;;;;1999.90;999.90;;;4.60;99.90;;;;;;5028893;28;20279;-70
2023/03/15 09:43:06;;;;;;;1999.90;999.90;;;4.80;99.90;;;;;;5028091;28;20558;-70
2023/03/15 09:45:59;;;;;;;1999.90;999.90;;;5.20;99.90;;;;;;5028861;28;20494;-70
2023/03/15 09:48:32;;;;;;;1999.90;999.90;;;6.00;99.90;;;;;;5028730;28;20176;-73
2023/03/15 09:51:27;;;;;;;1999.90;999.90;;;5.90;99.90;;;;;;5028140;28;20490;-72
2023/03/15 09:54:00;;;;;;;1999.90;999.90;;;6.00;99.90;;;;;;5028825;28;20476;-72
2023/03/15 09:56:55;;;;;;;1999.90;999.90;;;5.80;99.90;;;;;;5029237;28;20506;-72
2023/03/15 09:59:25;;;;;;;1999.90;999.90;;;5.70;99.90;;;;;;5028424;28;20569;-72
2023/03/15 10:01:54;;;;;;;1999.90;999.90;;;5.70;99.90;;;;;;5027937;28;20505;-72
2023/03/15 10:04:36;;;;;;;1999.90;999.90;;;5.80;99.90;;;;;;5029449;28;20403;-71
2023/03/15 10:07:02;;;;;;;1999.90;999.90;;;6.00;99.90;;;;;;5028308;28;20410;-70
2023/03/15 10:09:33;;;;;;;1999.90;999.90;;;6.20;99.90;;;;;;5029924;28;20585;-73
2023/03/15 10:12:08;;;;;;;1999.90;999.90;;;6.30;99.90;;;;;;5026592;28;20464;-72
2023/03/15 10:15:15;;;;;;;1999.90;999.90;;;6.50;99.90;;;;;;5029486;28;20787;-73
2023/03/15 10:17:46;;;;;;;1999.90;999.90;;;6.80;99.90;;;;;;5029134;28;20472;-73
2023/03/15 10:20:17;;;;;;;1999.90;999.90;;;6.90;99.90;;;;;;5028183;28;20506;-73
2023/03/15 10:23:07;;;;;;;1999.90;999.90;;;7.20;99.90;;;;;;5029563;28;20462;-72
2023/03/15 10:25:34;;;;;;;1999.90;999.90;;;7.00;99.90;;;;;;5030197;28;20849;-73
2023/03/15 10:28:20;;;;;;;1999.90;999.90;;;7.10;99.90;;;;;;5027968;28;20426;-73
2023/03/15 10:30:48;;;;;;;1999.90;999.90;;;6.80;99.90;;;;;;5029476;28;20482;-73
2023/03/15 10:33:33;;;;;;;1999.90;999.90;;;6.70;99.90;;;;;;5028201;28;20429;-72
2023/03/15 10:35:59;;;;;;;1999.90;999.90;;;6.60;99.90;;;;;;5011679;28;20503;-70
2023/03/15 10:38:26;;;;;;;1999.90;999.90;;;6.80;99.90;;;;;;5008251;28;20420;-73
2023/03/15 10:40:57;;;;;;;1999.90;999.90;;;6.80;99.90;;;;;;5008617;28;20435;-70
2023/03/15 10:43:24;;;;;;;1999.90;999.90;;;6.90;99.90;;;;;;5007872;28;20963;-69
2023/03/15 10:46:11;;;;;;;1999.90;999.90;;;7.10;99.90;;;;;;5007862;28;20416;-69
2023/03/15 10:48:52;;;;;;;1999.90;999.90;;;7.20;99.90;;;;;;5007466;28;20420;-69
2023/03/15 10:51:26;;;;;;;1999.90;999.90;;;7.20;99.90;;;;;;5007690;28;21181;-69
2023/03/15 10:54:10;;;;;;;1999.90;999.90;;;7.00;99.90;;;;;;5007634;28;20870;-74
2023/03/15 10:57:02;;;;;;;1999.90;999.90;;;6.80;99.90;;;;;;5008575;28;20435;-73
2023/03/15 10:59:34;;;;;;;1999.90;999.90;;;7.30;99.90;;;;;;4990728;28;20443;-73
2023/03/15 11:02:11;;;;;;;1999.90;999.90;;;6.50;99.90;;;;;;5007722;28;20453;-73
2023/03/15 11:05:11;;;;;;;1999.90;999.90;;;6.50;99.90;;;;;;5008410;28;20415;-74
2023/03/15 11:07:36;;;;;;;1999.90;999.90;;;6.60;99.90;;;;;;5002761;28;20431;-72
2023/03/15 11:10:05;;;;;;;1999.90;999.90;;;6.70;99.90;;;;;;5007884;28;20953;-73
2023/03/15 11:12:33;;;;;;;1999.90;999.90;;;6.90;99.90;;;;;;4989599;28;20537;-73
2023/03/15 11:15:09;;;;;;;1999.90;999.90;;;6.90;99.90;;;;;;5008346;28;20507;-70
2023/03/15 11:17:42;;;;;;;1999.90;999.90;;;7.30;99.90;;;;;;5008272;28;20502;-71
2023/03/15 11:20:31;;;;;;;1999.90;999.90;;;7.60;99.90;;;;;;5007293;28;20437;-69
2023/03/15 11:22:58;;;;;;;1999.90;999.90;;;8.00;99.90;;;;;;5007551;28;20828;-73
2023/03/15 11:25:30;;;;;;;1999.90;999.90;;;8.10;99.90;;;;;;5008120;28;21054;-73
2023/03/15 11:27:56;;;;;;;1999.90;999.90;;;8.10;99.90;;;;;;5007455;28;20456;-70
2023/03/15 11:30:28;;;;;;;1999.90;999.90;;;7.70;99.90;;;;;;5007157;28;20452;-69
2023/03/15 11:32:57;;;;;;;1999.90;999.90;;;7.90;99.90;;;;;;5007185;28;20421;-71
2023/03/15 11:35:29;;;;;;;1999.90;999.90;;;7.90;99.90;;;;;;5007940;28;20419;-68
2023/03/15 11:38:02;;;;;;;1999.90;999.90;;;8.00;99.90;;;;;;5007518;28;20420;-69
2023/03/15 11:40:36;;;;;;;1999.90;999.90;;;8.10;99.90;;;;;;5006522;28;20434;-67
2023/03/15 11:43:37;;;;;;;1999.90;999.90;;;8.60;99.90;;;;;;5007009;28;20469;-70
2023/03/15 11:46:08;;;;;;;1999.90;999.90;;;8.70;99.90;;;;;;4989724;28;20421;-72
2023/03/15 11:48:39;;;;;;;1999.90;999.90;;;9.00;99.90;;;;;;5007558;28;20410;-70
2023/03/15 11:51:06;;;;;;;1999.90;999.90;;;9.10;99.90;;;;;;5008045;28;21090;-73
2023/03/15 11:53:37;;;;;;;1999.90;999.90;;;9.30;99.90;;;;;;5007474;28;20440;-72
2023/03/15 11:56:47;;;;;;;1999.90;999.90;;;9.40;99.90;;;;;;5006863;28;20859;-71
2023/03/15 11:59:29;;;;;;;1999.90;999.90;;;9.30;99.90;;;;;;4982443;28;20865;-72
2023/03/15 12:02:26;;;;;;;1999.90;999.90;;;9.20;99.90;;;;;;5007151;28;20429;-71
2023/03/15 12:04:55;;;;;;;1999.90;999.90;;;8.80;99.90;;;;;;5005117;28;20427;-73
2023/03/15 12:07:24;;;;;;;1999.90;999.90;;;8.10;99.90;;;;;;5011366;28;20467;-73
2023/03/15 12:09:55;;;;;;;1999.90;999.90;;;7.90;99.90;;;;;;5009171;28;20794;-73
2023/03/15 12:12:23;;;;;;;1999.90;999.90;;;8.00;99.90;;;;;;5011873;28;20768;-73
2023/03/15 12:15:04;;;;;;;1999.90;999.90;;;9.30;99.90;;;;;;5015494;28;20411;-74
2023/03/15 12:17:30;;;;;;;1999.90;999.90;;;10.90;99.90;;;;;;5015332;28;20438;-74